sensor_id;sensor_type;location;lat;lon;timestamp;pressure;altitude;pressure_sealevel;temperature;humidity
56052;BME280;41919;42.648;23.384;2022-10-16T00:01:42;95220.28;;;10.51;74.62
56052;BME280;41919;42.648;23.384;2022-10-16T00:04:08;95226.53;;;10.35;75.16
56052;BME280;41919;42.648;23.384;2022-10-16T00:06:33;95225.22;;;10.25;75.22
56052;BME280;41919;42.648;23.384;2022-10-16T00:08:59;95235.25;;;10.06;74.85
56052;BME280;41919;42.648;23.384;2022-10-16T00:11:25;95230.59;;;10.01;74.41
56052;BME280;41919;42.648;23.384;2022-10-16T00:13:52;95227.41;;;10.06;74.88
56052;BME280;41919;42.648;23.384;2022-10-16T00:16:19;95229.06;;;10.07;74.76
56052;BME280;41919;42.648;23.384;2022-10-16T00:18:45;95228.03;;;10.08;74.47
56052;BME280;41919;42.648;23.384;2022-10-16T00:21:12;95229.72;;;10.16;74.13
56052;BME280;41919;42.648;23.384;2022-10-16T00:23:37;95232.44;;;10.23;74.56
56052;BME280;41919;42.648;23.384;2022-10-16T00:26:04;95232.34;;;10.31;74.27
56052;BME280;41919;42.648;23.384;2022-10-16T00:28:30;95235.56;;;10.33;73.80
56052;BME280;41919;42.648;23.384;2022-10-16T00:30:56;95237.44;;;10.39;74.37
56052;BME280;41919;42.648;23.384;2022-10-16T00:33:22;95241.13;;;10.45;74.75
56052;BME280;41919;42.648;23.384;2022-10-16T00:35:47;95246.78;;;10.48;74.71
56052;BME280;41919;42.648;23.384;2022-10-16T00:38:13;95251.03;;;10.49;74.25
56052;BME280;41919;42.648;23.384;2022-10-16T00:40:38;95255.09;;;10.37;74.75
56052;BME280;41919;42.648;23.384;2022-10-16T00:43:09;95248.91;;;10.38;74.98
56052;BME280;41919;42.648;23.384;2022-10-16T00:45:35;95248.94;;;10.45;74.68
56052;BME280;41919;42.648;23.384;2022-10-16T00:48:01;95244.75;;;10.44;74.39
56052;BME280;41919;42.648;23.384;2022-10-16T00:50:27;95242.94;;;10.44;74.04
56052;BME280;41919;42.648;23.384;2022-10-16T00:52:53;95235.72;;;10.46;73.45
56052;BME280;41919;42.648;23.384;2022-10-16T00:55:19;95240.13;;;10.46;73.84
56052;BME280;41919;42.648;23.384;2022-10-16T00:57:45;95246.44;;;10.51;73.77
56052;BME280;41919;42.648;23.384;2022-10-16T01:00:12;95244.00;;;10.50;73.64
56052;BME280;41919;42.648;23.384;2022-10-16T01:02:39;95256.84;;;10.30;73.77
56052;BME280;41919;42.648;23.384;2022-10-16T01:05:04;95257.38;;;10.10;75.10
56052;BME280;41919;42.648;23.384;2022-10-16T01:07:53;95255.91;;;10.01;76.01
56052;BME280;41919;42.648;23.384;2022-10-16T01:13:04;95260.50;;;9.69;74.03
56052;BME280;41919;42.648;23.384;2022-10-16T01:15:37;95260.47;;;9.39;74.43
56052;BME280;41919;42.648;23.384;2022-10-16T01:18:08;95263.06;;;9.10;75.90
56052;BME280;41919;42.648;23.384;2022-10-16T01:20:42;95254.53;;;8.78;77.12
56052;BME280;41919;42.648;23.384;2022-10-16T01:28:21;95250.56;;;8.44;79.10
56052;BME280;41919;42.648;23.384;2022-10-16T01:30:47;95247.31;;;8.42;79.44
56052;BME280;41919;42.648;23.384;2022-10-16T01:35:47;95241.50;;;8.00;81.25
56052;BME280;41919;42.648;23.384;2022-10-16T01:40:47;95239.16;;;7.82;82.16
56052;BME280;41919;42.648;23.384;2022-10-16T01:43:15;95243.88;;;7.71;82.70
56052;BME280;41919;42.648;23.384;2022-10-16T01:45:42;95250.28;;;7.60;83.76
56052;BME280;41919;42.648;23.384;2022-10-16T01:48:09;95242.97;;;7.55;84.06
56052;BME280;41919;42.648;23.384;2022-10-16T01:50:37;95249.31;;;7.53;84.16
56052;BME280;41919;42.648;23.384;2022-10-16T01:53:04;95259.41;;;7.56;83.98
56052;BME280;41919;42.648;23.384;2022-10-16T01:55:32;95258.56;;;7.55;83.91
56052;BME280;41919;42.648;23.384;2022-10-16T01:57:59;95258.94;;;7.52;83.51
56052;BME280;41919;42.648;23.384;2022-10-16T02:00:25;95251.59;;;7.47;83.62
56052;BME280;41919;42.648;23.384;2022-10-16T02:02:52;95257.16;;;7.44;83.82
56052;BME280;41919;42.648;23.384;2022-10-16T02:07:52;95258.16;;;7.35;84.34
56052;BME280;41919;42.648;23.384;2022-10-16T02:10:17;95265.97;;;7.27;84.91
56052;BME280;41919;42.648;23.384;2022-10-16T02:12:45;95268.88;;;7.32;84.91
56052;BME280;41919;42.648;23.384;2022-10-16T02:15:13;95265.16;;;7.26;85.46
56052;BME280;41919;42.648;23.384;2022-10-16T02:17:38;95267.28;;;7.23;85.95
56052;BME280;41919;42.648;23.384;2022-10-16T02:20:04;95280.28;;;7.23;85.96
56052;BME280;41919;42.648;23.384;2022-10-16T02:22:30;95277.34;;;7.26;85.93
56052;BME280;41919;42.648;23.384;2022-10-16T02:25:07;95280.59;;;7.28;85.79
56052;BME280;41919;42.648;23.384;2022-10-16T02:27:46;95282.41;;;7.19;85.81
56052;BME280;41919;42.648;23.384;2022-10-16T02:32:44;95285.63;;;7.13;85.71
56052;BME280;41919;42.648;23.384;2022-10-16T02:35:10;95286.47;;;7.14;86.30
56052;BME280;41919;42.648;23.384;2022-10-16T02:37:36;95285.66;;;7.05;86.63
56052;BME280;41919;42.648;23.384;2022-10-16T02:40:03;95282.06;;;6.98;86.83
56052;BME280;41919;42.648;23.384;2022-10-16T02:42:37;95290.06;;;6.96;87.34
56052;BME280;41919;42.648;23.384;2022-10-16T02:45:03;95284.53;;;6.83;87.87
56052;BME280;41919;42.648;23.384;2022-10-16T02:47:29;95289.09;;;6.81;88.06
56052;BME280;41919;42.648;23.384;2022-10-16T02:49:54;95288.59;;;6.77;88.59
56052;BME280;41919;42.648;23.384;2022-10-16T02:52:19;95287.13;;;6.66;89.39
56052;BME280;41919;42.648;23.384;2022-10-16T02:54:44;95304.50;;;6.66;90.07
56052;BME280;41919;42.648;23.384;2022-10-16T02:57:10;95303.34;;;6.60;90.94
56052;BME280;41919;42.648;23.384;2022-10-16T02:59:35;95297.34;;;6.60;91.70
56052;BME280;41919;42.648;23.384;2022-10-16T03:02:00;95313.41;;;6.55;92.67
56052;BME280;41919;42.648;23.384;2022-10-16T03:04:26;95302.50;;;6.52;93.39
56052;BME280;41919;42.648;23.384;2022-10-16T03:06:51;95308.84;;;6.49;93.83
56052;BME280;41919;42.648;23.384;2022-10-16T03:09:16;95302.50;;;6.43;95.02
56052;BME280;41919;42.648;23.384;2022-10-16T03:11:42;95306.25;;;6.41;96.13
56052;BME280;41919;42.648;23.384;2022-10-16T03:14:07;95306.09;;;6.51;96.05
56052;BME280;41919;42.648;23.384;2022-10-16T03:16:32;95306.09;;;6.59;95.58
56052;BME280;41919;42.648;23.384;2022-10-16T03:18:57;95308.19;;;6.55;95.56
56052;BME280;41919;42.648;23.384;2022-10-16T03:21:23;95318.44;;;6.57;96.11
56052;BME280;41919;42.648;23.384;2022-10-16T03:23:48;95321.19;;;6.63;96.18
56052;BME280;41919;42.648;23.384;2022-10-16T03:26:13;95325.41;;;6.56;96.38
56052;BME280;41919;42.648;23.384;2022-10-16T03:28:38;95323.47;;;6.58;95.97
56052;BME280;41919;42.648;23.384;2022-10-16T03:31:04;95322.81;;;6.64;95.89
56052;BME280;41919;42.648;23.384;2022-10-16T03:33:29;95325.13;;;6.76;95.24
56052;BME280;41919;42.648;23.384;2022-10-16T03:35:54;95326.41;;;6.72;94.19
56052;BME280;41919;42.648;23.384;2022-10-16T03:38:20;95321.88;;;6.65;92.68
56052;BME280;41919;42.648;23.384;2022-10-16T03:40:46;95325.72;;;6.53;92.73
56052;BME280;41919;42.648;23.384;2022-10-16T03:43:11;95324.44;;;6.49;93.12
56052;BME280;41919;42.648;23.384;2022-10-16T03:45:36;95324.56;;;6.39;94.17
56052;BME280;41919;42.648;23.384;2022-10-16T03:48:01;95321.13;;;6.31;94.76
56052;BME280;41919;42.648;23.384;2022-10-16T03:50:28;95317.88;;;6.28;95.32
56052;BME280;41919;42.648;23.384;2022-10-16T03:52:54;95321.78;;;6.33;94.87
56052;BME280;41919;42.648;23.384;2022-10-16T03:55:19;95318.72;;;6.45;94.98
56052;BME280;41919;42.648;23.384;2022-10-16T03:57:44;95317.63;;;6.64;93.70
56052;BME280;41919;42.648;23.384;2022-10-16T04:00:10;95300.78;;;6.85;91.51
56052;BME280;41919;42.648;23.384;2022-10-16T04:02:35;95302.56;;;7.01;89.87
56052;BME280;41919;42.648;23.384;2022-10-16T04:05:00;95304.00;;;7.20;87.98
56052;BME280;41919;42.648;23.384;2022-10-16T04:07:26;95313.59;;;7.19;87.24
56052;BME280;41919;42.648;23.384;2022-10-16T04:09:51;95310.50;;;6.99;87.93
56052;BME280;41919;42.648;23.384;2022-10-16T04:12:17;95316.53;;;6.83;88.84
56052;BME280;41919;42.648;23.384;2022-10-16T04:14:42;95319.75;;;6.77;88.99
56052;BME280;41919;42.648;23.384;2022-10-16T04:17:07;95310.69;;;6.81;89.31
56052;BME280;41919;42.648;23.384;2022-10-16T04:19:32;95312.81;;;6.94;88.72
56052;BME280;41919;42.648;23.384;2022-10-16T04:21:58;95313.75;;;7.01;88.09
56052;BME280;41919;42.648;23.384;2022-10-16T04:24:23;95313.09;;;6.91;88.47
56052;BME280;41919;42.648;23.384;2022-10-16T04:26:48;95310.03;;;6.87;89.51
56052;BME280;41919;42.648;23.384;2022-10-16T04:29:14;95316.22;;;6.86;89.61
56052;BME280;41919;42.648;23.384;2022-10-16T04:31:39;95318.63;;;6.88;89.51
56052;BME280;41919;42.648;23.384;2022-10-16T04:34:04;95316.34;;;6.93;89.41
56052;BME280;41919;42.648;23.384;2022-10-16T04:36:30;95322.53;;;7.09;88.90
56052;BME280;41919;42.648;23.384;2022-10-16T04:38:55;95326.59;;;7.19;87.70
56052;BME280;41919;42.648;23.384;2022-10-16T04:41:21;95324.97;;;7.35;86.93
56052;BME280;41919;42.648;23.384;2022-10-16T04:43:46;95335.03;;;7.46;85.94
56052;BME280;41919;42.648;23.384;2022-10-16T04:46:11;95337.94;;;7.59;85.30
56052;BME280;41919;42.648;23.384;2022-10-16T04:48:36;95340.66;;;7.66;84.57
56052;BME280;41919;42.648;23.384;2022-10-16T04:51:02;95339.03;;;7.73;83.15
56052;BME280;41919;42.648;23.384;2022-10-16T04:53:27;95340.97;;;7.63;82.67
56052;BME280;41919;42.648;23.384;2022-10-16T04:55:52;95339.69;;;7.59;82.75
56052;BME280;41919;42.648;23.384;2022-10-16T04:58:18;95336.16;;;7.35;83.53
56052;BME280;41919;42.648;23.384;2022-10-16T05:00:43;95341.03;;;7.38;83.85
56052;BME280;41919;42.648;23.384;2022-10-16T05:03:09;95347.34;;;7.44;84.03
56052;BME280;41919;42.648;23.384;2022-10-16T05:05:35;95355.75;;;7.71;82.42
56052;BME280;41919;42.648;23.384;2022-10-16T05:08:00;95353.19;;;8.18;80.21
56052;BME280;41919;42.648;23.384;2022-10-16T05:10:26;95352.41;;;8.49;78.62
56052;BME280;41919;42.648;23.384;2022-10-16T05:12:51;95362.00;;;9.26;75.48
56052;BME280;41919;42.648;23.384;2022-10-16T05:15:17;95357.44;;;9.81;72.58
56052;BME280;41919;42.648;23.384;2022-10-16T05:17:42;95361.38;;;9.62;71.89
56052;BME280;41919;42.648;23.384;2022-10-16T05:20:07;95371.09;;;9.53;72.09
56052;BME280;41919;42.648;23.384;2022-10-16T05:22:33;95365.00;;;9.91;70.95
56052;BME280;41919;42.648;23.384;2022-10-16T05:24:58;95374.13;;;10.10;69.63
56052;BME280;41919;42.648;23.384;2022-10-16T05:27:23;95371.06;;;10.36;68.52
56052;BME280;41919;42.648;23.384;2022-10-16T05:29:49;95375.47;;;10.87;66.60
56052;BME280;41919;42.648;23.384;2022-10-16T05:32:14;95377.28;;;11.08;65.31
56052;BME280;41919;42.648;23.384;2022-10-16T05:34:40;95373.09;;;11.35;64.74
56052;BME280;41919;42.648;23.384;2022-10-16T05:37:05;95367.47;;;11.88;63.01
56052;BME280;41919;42.648;23.384;2022-10-16T05:39:30;95364.47;;;12.19;62.16
56052;BME280;41919;42.648;23.384;2022-10-16T05:41:56;95365.84;;;12.08;61.64
56052;BME280;41919;42.648;23.384;2022-10-16T05:44:21;95368.44;;;12.08;61.36
56052;BME280;41919;42.648;23.384;2022-10-16T05:46:46;95376.22;;;11.95;62.14
56052;BME280;41919;42.648;23.384;2022-10-16T05:49:12;95375.44;;;12.36;60.79
56052;BME280;41919;42.648;23.384;2022-10-16T05:51:37;95377.13;;;12.50;60.12
56052;BME280;41919;42.648;23.384;2022-10-16T05:54:02;95375.84;;;12.81;59.07
56052;BME280;41919;42.648;23.384;2022-10-16T05:56:27;95386.13;;;12.89;59.17
56052;BME280;41919;42.648;23.384;2022-10-16T05:58:53;95385.38;;;13.09;58.85
56052;BME280;41919;42.648;23.384;2022-10-16T06:01:19;95390.72;;;13.49;56.27
56052;BME280;41919;42.648;23.384;2022-10-16T06:03:45;95392.22;;;12.97;57.92
56052;BME280;41919;42.648;23.384;2022-10-16T06:06:15;95390.84;;;13.14;58.05
56052;BME280;41919;42.648;23.384;2022-10-16T06:08:41;95401.84;;;13.91;56.43
56052;BME280;41919;42.648;23.384;2022-10-16T06:11:10;95399.59;;;13.95;55.42
56052;BME280;41919;42.648;23.384;2022-10-16T06:13:36;95402.50;;;15.10;52.71
56052;BME280;41919;42.648;23.384;2022-10-16T06:16:01;95408.13;;;15.84;50.03
56052;BME280;41919;42.648;23.384;2022-10-16T06:18:27;95400.16;;;16.34;48.01
56052;BME280;41919;42.648;23.384;2022-10-16T06:20:53;95406.53;;;16.26;47.68
56052;BME280;41919;42.648;23.384;2022-10-16T06:23:18;95406.03;;;16.73;46.72
56052;BME280;41919;42.648;23.384;2022-10-16T06:25:43;95407.88;;;17.52;45.25
56052;BME280;41919;42.648;23.384;2022-10-16T06:28:09;95420.50;;;18.03;43.79
56052;BME280;41919;42.648;23.384;2022-10-16T06:30:34;95418.00;;;18.09;43.79
56052;BME280;41919;42.648;23.384;2022-10-16T06:32:59;95417.84;;;18.63;41.51
56052;BME280;41919;42.648;23.384;2022-10-16T06:35:24;95417.34;;;18.66;42.13
56052;BME280;41919;42.648;23.384;2022-10-16T06:37:50;95418.97;;;19.48;40.22
56052;BME280;41919;42.648;23.384;2022-10-16T06:40:15;95425.59;;;19.62;38.49
56052;BME280;41919;42.648;23.384;2022-10-16T06:42:41;95418.22;;;18.54;41.50
56052;BME280;41919;42.648;23.384;2022-10-16T06:45:06;95422.31;;;20.23;38.62
56052;BME280;41919;42.648;23.384;2022-10-16T06:47:31;95417.47;;;22.34;35.78
56052;BME280;41919;42.648;23.384;2022-10-16T06:49:57;95416.38;;;23.51;32.75
56052;BME280;41919;42.648;23.384;2022-10-16T06:52:22;95418.47;;;24.77;30.55
56052;BME280;41919;42.648;23.384;2022-10-16T06:54:47;95426.13;;;25.64;28.80
56052;BME280;41919;42.648;23.384;2022-10-16T06:57:13;95426.06;;;26.43;27.22
56052;BME280;41919;42.648;23.384;2022-10-16T06:59:38;95420.44;;;27.17;26.50
56052;BME280;41919;42.648;23.384;2022-10-16T07:02:03;95427.66;;;27.98;25.26
56052;BME280;41919;42.648;23.384;2022-10-16T07:04:28;95436.06;;;28.29;25.11
56052;BME280;41919;42.648;23.384;2022-10-16T07:06:54;95433.94;;;28.26;24.13
56052;BME280;41919;42.648;23.384;2022-10-16T07:09:19;95436.53;;;28.64;24.06
56052;BME280;41919;42.648;23.384;2022-10-16T07:11:44;95431.97;;;29.20;22.87
56052;BME280;41919;42.648;23.384;2022-10-16T07:14:12;95423.50;;;29.40;22.40
56052;BME280;41919;42.648;23.384;2022-10-16T07:16:39;95424.28;;;30.36;21.65
56052;BME280;41919;42.648;23.384;2022-10-16T07:19:05;95433.78;;;30.65;21.48
56052;BME280;41919;42.648;23.384;2022-10-16T07:21:31;95440.41;;;30.59;21.08
56052;BME280;41919;42.648;23.384;2022-10-16T07:24:00;95445.03;;;29.26;22.33
56052;BME280;41919;42.648;23.384;2022-10-16T07:26:31;95449.38;;;28.34;23.85
56052;BME280;41919;42.648;23.384;2022-10-16T07:28:57;95440.13;;;29.42;22.36
56052;BME280;41919;42.648;23.384;2022-10-16T07:31:23;95436.00;;;29.95;21.38
56052;BME280;41919;42.648;23.384;2022-10-16T07:33:48;95437.56;;;30.33;21.20
56052;BME280;41919;42.648;23.384;2022-10-16T07:36:14;95438.78;;;29.67;22.09
56052;BME280;41919;42.648;23.384;2022-10-16T07:38:40;95451.69;;;28.60;23.26
56052;BME280;41919;42.648;23.384;2022-10-16T07:41:08;95441.41;;;30.18;21.98
56052;BME280;41919;42.648;23.384;2022-10-16T07:43:34;95444.16;;;31.20;20.72
56052;BME280;41919;42.648;23.384;2022-10-16T07:45:59;95444.59;;;31.80;19.93
56052;BME280;41919;42.648;23.384;2022-10-16T07:48:26;95444.91;;;31.03;19.99
56052;BME280;41919;42.648;23.384;2022-10-16T07:50:52;95446.25;;;31.41;20.12
56052;BME280;41919;42.648;23.384;2022-10-16T07:53:17;95433.13;;;32.35;19.06
56052;BME280;41919;42.648;23.384;2022-10-16T07:55:43;95443.38;;;32.77;18.53
56052;BME280;41919;42.648;23.384;2022-10-16T07:58:08;95440.41;;;32.99;18.16
56052;BME280;41919;42.648;23.384;2022-10-16T08:00:33;95447.97;;;32.03;19.16
56052;BME280;41919;42.648;23.384;2022-10-16T08:03:00;95451.84;;;31.36;19.74
56052;BME280;41919;42.648;23.384;2022-10-16T08:05:29;95444.59;;;31.80;19.46
56052;BME280;41919;42.648;23.384;2022-10-16T08:07:56;95453.34;;;31.77;19.43
56052;BME280;41919;42.648;23.384;2022-10-16T08:10:21;95457.72;;;31.38;19.68
56052;BME280;41919;42.648;23.384;2022-10-16T08:12:47;95452.63;;;31.45;20.94
56052;BME280;41919;42.648;23.384;2022-10-16T08:15:12;95451.41;;;31.51;21.94
56052;BME280;41919;42.648;23.384;2022-10-16T08:17:38;95453.41;;;31.37;21.44
56052;BME280;41919;42.648;23.384;2022-10-16T08:20:03;95455.28;;;31.27;26.96
56052;BME280;41919;42.648;23.384;2022-10-16T08:22:29;95452.78;;;31.40;24.63
56052;BME280;41919;42.648;23.384;2022-10-16T08:24:54;95446.44;;;31.36;20.90
56052;BME280;41919;42.648;23.384;2022-10-16T08:27:19;95445.44;;;30.06;21.29
56052;BME280;41919;42.648;23.384;2022-10-16T08:29:44;95443.25;;;30.08;21.90
56052;BME280;41919;42.648;23.384;2022-10-16T08:32:10;95444.47;;;30.02;22.17
56052;BME280;41919;42.648;23.384;2022-10-16T08:34:35;95445.75;;;29.68;24.52
56052;BME280;41919;42.648;23.384;2022-10-16T08:37:00;95443.00;;;29.60;21.85
56052;BME280;41919;42.648;23.384;2022-10-16T08:39:26;95447.53;;;29.23;21.78
56052;BME280;41919;42.648;23.384;2022-10-16T08:42:04;95445.16;;;26.66;24.55
56052;BME280;41919;42.648;23.384;2022-10-16T08:50:17;95452.75;;;23.87;28.37
56052;BME280;41919;42.648;23.384;2022-10-16T08:52:43;95459.09;;;24.84;28.33
56052;BME280;41919;42.648;23.384;2022-10-16T08:57:53;95451.16;;;24.17;26.21
56052;BME280;41919;42.648;23.384;2022-10-16T09:00:18;95463.97;;;24.31;26.29
56052;BME280;41919;42.648;23.384;2022-10-16T09:02:46;95458.09;;;23.98;27.16
56052;BME280;41919;42.648;23.384;2022-10-16T09:12:56;95454.53;;;22.45;29.73
56052;BME280;41919;42.648;23.384;2022-10-16T09:20:39;95446.94;;;22.64;29.08
56052;BME280;41919;42.648;23.384;2022-10-16T09:23:14;95461.38;;;21.22;31.47
56052;BME280;41919;42.648;23.384;2022-10-16T09:25:41;95460.16;;;20.69;32.52
56052;BME280;41919;42.648;23.384;2022-10-16T09:28:08;95462.72;;;20.08;34.17
56052;BME280;41919;42.648;23.384;2022-10-16T09:30:34;95459.81;;;19.64;34.98
56052;BME280;41919;42.648;23.384;2022-10-16T09:32:59;95458.78;;;19.36;36.19
56052;BME280;41919;42.648;23.384;2022-10-16T09:35:31;95454.66;;;20.03;34.11
56052;BME280;41919;42.648;23.384;2022-10-16T09:38:00;95451.22;;;20.02;33.88
56052;BME280;41919;42.648;23.384;2022-10-16T09:40:29;95452.97;;;19.96;32.71
56052;BME280;41919;42.648;23.384;2022-10-16T09:43:19;95450.88;;;19.82;33.52
56052;BME280;41919;42.648;23.384;2022-10-16T09:45:41;95452.78;;;19.86;32.65
56052;BME280;41919;42.648;23.384;2022-10-16T09:48:12;95451.75;;;20.21;32.67
56052;BME280;41919;42.648;23.384;2022-10-16T09:50:38;95453.94;;;20.24;31.86
56052;BME280;41919;42.648;23.384;2022-10-16T09:53:04;95440.56;;;20.19;32.53
56052;BME280;41919;42.648;23.384;2022-10-16T09:55:29;95441.38;;;19.86;33.70
56052;BME280;41919;42.648;23.384;2022-10-16T09:57:55;95444.84;;;19.86;33.41
56052;BME280;41919;42.648;23.384;2022-10-16T10:00:21;95438.66;;;19.97;33.28
56052;BME280;41919;42.648;23.384;2022-10-16T10:02:47;95437.66;;;20.37;32.95
56052;BME280;41919;42.648;23.384;2022-10-16T10:05:34;95429.38;;;20.51;32.88
56052;BME280;41919;42.648;23.384;2022-10-16T10:07:59;95433.97;;;20.39;32.95
56052;BME280;41919;42.648;23.384;2022-10-16T10:10:26;95434.41;;;19.96;33.22
56052;BME280;41919;42.648;23.384;2022-10-16T10:12:52;95426.50;;;20.02;33.43
56052;BME280;41919;42.648;23.384;2022-10-16T10:15:18;95427.47;;;19.50;34.34
56052;BME280;41919;42.648;23.384;2022-10-16T10:22:44;95423.19;;;19.32;34.49
56052;BME280;41919;42.648;23.384;2022-10-16T10:30:15;95423.56;;;19.24;34.24
56052;BME280;41919;42.648;23.384;2022-10-16T10:32:47;95416.56;;;19.17;34.22
56052;BME280;41919;42.648;23.384;2022-10-16T10:40:51;95410.03;;;19.08;34.69
56052;BME280;41919;42.648;23.384;2022-10-16T10:46:04;95407.75;;;19.00;33.77
56052;BME280;41919;42.648;23.384;2022-10-16T10:51:13;95402.91;;;18.33;34.46
56052;BME280;41919;42.648;23.384;2022-10-16T10:53:52;95403.81;;;18.50;34.73
56052;BME280;41919;42.648;23.384;2022-10-16T11:01:41;95393.88;;;18.81;31.14
56052;BME280;41919;42.648;23.384;2022-10-16T11:06:48;95385.31;;;18.79;29.63
56052;BME280;41919;42.648;23.384;2022-10-16T11:09:16;95385.59;;;18.77;30.30
56052;BME280;41919;42.648;23.384;2022-10-16T11:11:53;95382.88;;;18.49;30.56
56052;BME280;41919;42.648;23.384;2022-10-16T11:14:38;95383.78;;;18.42;31.02
56052;BME280;41919;42.648;23.384;2022-10-16T11:17:10;95382.19;;;18.53;30.65
56052;BME280;41919;42.648;23.384;2022-10-16T11:19:40;95386.69;;;18.41;32.25
56052;BME280;41919;42.648;23.384;2022-10-16T11:24:53;95380.94;;;18.32;32.46
56052;BME280;41919;42.648;23.384;2022-10-16T11:27:23;95377.59;;;18.25;32.52
56052;BME280;41919;42.648;23.384;2022-10-16T11:29:59;95369.09;;;18.23;32.22
56052;BME280;41919;42.648;23.384;2022-10-16T11:32:32;95379.69;;;18.11;33.29
56052;BME280;41919;42.648;23.384;2022-10-16T11:35:06;95374.41;;;18.11;33.57
56052;BME280;41919;42.648;23.384;2022-10-16T11:37:41;95374.16;;;18.13;34.03
56052;BME280;41919;42.648;23.384;2022-10-16T11:42:54;95377.03;;;18.23;34.43
56052;BME280;41919;42.648;23.384;2022-10-16T11:45:41;95370.25;;;18.39;34.16
56052;BME280;41919;42.648;23.384;2022-10-16T11:48:12;95367.94;;;18.31;34.26
56052;BME280;41919;42.648;23.384;2022-10-16T11:51:05;95364.69;;;18.40;34.63
56052;BME280;41919;42.648;23.384;2022-10-16T11:56:04;95385.41;;;18.08;34.93
56052;BME280;41919;42.648;23.384;2022-10-16T11:58:35;95375.06;;;18.30;33.90
56052;BME280;41919;42.648;23.384;2022-10-16T12:08:33;95367.31;;;18.52;33.81
56052;BME280;41919;42.648;23.384;2022-10-16T12:13:43;95368.06;;;18.36;34.00
56052;BME280;41919;42.648;23.384;2022-10-16T12:18:37;95365.56;;;18.70;34.31
56052;BME280;41919;42.648;23.384;2022-10-16T12:21:02;95364.53;;;18.71;34.20
56052;BME280;41919;42.648;23.384;2022-10-16T12:23:32;95370.72;;;18.88;33.15
56052;BME280;41919;42.648;23.384;2022-10-16T12:25:59;95363.34;;;18.90;32.96
56052;BME280;41919;42.648;23.384;2022-10-16T12:28:29;95373.47;;;18.93;32.41
56052;BME280;41919;42.648;23.384;2022-10-16T12:30:56;95366.22;;;18.89;32.33
56052;BME280;41919;42.648;23.384;2022-10-16T12:33:26;95367.00;;;19.01;32.06
56052;BME280;41919;42.648;23.384;2022-10-16T12:35:52;95373.88;;;19.02;32.69
56052;BME280;41919;42.648;23.384;2022-10-16T12:38:19;95369.59;;;18.72;32.66
56052;BME280;41919;42.648;23.384;2022-10-16T12:40:45;95373.69;;;18.92;32.80
56052;BME280;41919;42.648;23.384;2022-10-16T12:45:46;95368.28;;;18.98;33.40
56052;BME280;41919;42.648;23.384;2022-10-16T12:48:21;95373.22;;;18.95;33.16
56052;BME280;41919;42.648;23.384;2022-10-16T12:50:47;95376.69;;;18.95;33.40
56052;BME280;41919;42.648;23.384;2022-10-16T12:55:48;95378.38;;;19.02;33.14
56052;BME280;41919;42.648;23.384;2022-10-16T13:00:47;95385.63;;;19.06;32.81
56052;BME280;41919;42.648;23.384;2022-10-16T13:24:02;95381.19;;;19.24;32.62
56052;BME280;41919;42.648;23.384;2022-10-16T13:29:04;95384.13;;;19.10;32.34
56052;BME280;41919;42.648;23.384;2022-10-16T13:31:29;95376.50;;;19.14;32.40
56052;BME280;41919;42.648;23.384;2022-10-16T13:33:56;95383.41;;;19.15;32.26
56052;BME280;41919;42.648;23.384;2022-10-16T13:36:28;95387.34;;;19.12;32.07
56052;BME280;41919;42.648;23.384;2022-10-16T13:41:31;95389.13;;;18.95;32.26
56052;BME280;41919;42.648;23.384;2022-10-16T13:43:56;95390.59;;;19.03;32.73
56052;BME280;41919;42.648;23.384;2022-10-16T13:46:23;95397.81;;;19.07;32.19
56052;BME280;41919;42.648;23.384;2022-10-16T13:51:56;95378.03;;;18.98;32.87
56052;BME280;41919;42.648;23.384;2022-10-16T13:54:22;95382.31;;;18.99;32.65
56052;BME280;41919;42.648;23.384;2022-10-16T13:56:47;95390.09;;;19.06;33.13
56052;BME280;41919;42.648;23.384;2022-10-16T14:04:44;95392.34;;;18.97;33.04
56052;BME280;41919;42.648;23.384;2022-10-16T14:07:13;95391.09;;;18.88;33.21
56052;BME280;41919;42.648;23.384;2022-10-16T14:09:39;95395.81;;;18.86;32.88
56052;BME280;41919;42.648;23.384;2022-10-16T14:12:10;95396.19;;;18.54;33.39
56052;BME280;41919;42.648;23.384;2022-10-16T14:14:46;95396.91;;;18.49;34.13
56052;BME280;41919;42.648;23.384;2022-10-16T14:17:15;95403.72;;;18.45;33.32
56052;BME280;41919;42.648;23.384;2022-10-16T14:19:45;95400.03;;;18.22;33.39
56052;BME280;41919;42.648;23.384;2022-10-16T14:22:20;95403.25;;;18.13;33.43
56052;BME280;41919;42.648;23.384;2022-10-16T14:24:48;95411.06;;;18.08;33.36
56052;BME280;41919;42.648;23.384;2022-10-16T14:30:05;95418.78;;;17.86;33.76
56052;BME280;41919;42.648;23.384;2022-10-16T14:32:33;95417.47;;;17.76;34.22
56052;BME280;41919;42.648;23.384;2022-10-16T14:34:59;95412.03;;;17.71;33.95
56052;BME280;41919;42.648;23.384;2022-10-16T14:37:24;95407.06;;;17.51;34.38
56052;BME280;41919;42.648;23.384;2022-10-16T14:39:50;95415.22;;;17.50;33.92
56052;BME280;41919;42.648;23.384;2022-10-16T14:42:16;95421.84;;;17.40;34.11
56052;BME280;41919;42.648;23.384;2022-10-16T14:44:44;95419.84;;;17.24;35.02
56052;BME280;41919;42.648;23.384;2022-10-16T14:47:11;95429.59;;;17.23;35.17
56052;BME280;41919;42.648;23.384;2022-10-16T14:49:38;95423.00;;;17.14;35.35
56052;BME280;41919;42.648;23.384;2022-10-16T14:52:05;95421.88;;;16.92;35.37
56052;BME280;41919;42.648;23.384;2022-10-16T14:54:33;95429.81;;;16.92;35.61
56052;BME280;41919;42.648;23.384;2022-10-16T14:56:58;95437.19;;;16.83;36.23
56052;BME280;41919;42.648;23.384;2022-10-16T14:59:37;95443.13;;;16.78;36.12
56052;BME280;41919;42.648;23.384;2022-10-16T15:02:45;95435.06;;;16.73;36.36
56052;BME280;41919;42.648;23.384;2022-10-16T15:04:51;95437.78;;;16.66;37.26
56052;BME280;41919;42.648;23.384;2022-10-16T15:07:17;95440.31;;;16.55;37.06